Terminal Aerodrome Forecast
Issued by NWS

Home | Current Version | Previous Version | Graphics & Text | Print | Product List | Glossary On
Versions: 1 2 3 4 5 6 7 8 9 10 11 12 13 14 15 16 17 18 19 20 21
000
FTUS43 KBIS 261700
TAFMOT
TAF
KMOT 261720Z 2618/2718 26023G33KT P6SM -SHRA BKN035
     FM270200 30014KT P6SM BKN035
     FM270600 30008KT P6SM BKN015
     FM271600 31009KT P6SM SCT015 BKN030=

USA.gov is the U.S. government's official web portal to all federal, state and local government web resources and services.